Time;durP1;ratioP1;P1;durP2;ratioP2;P2;SDS_P1;SDS_P2;PMS_P1;PMS_P2;Temp;Humidity;BMP_temperature;BMP_pressure;BME280_temperature;BME280_humidity;BME280_pressure;Samples;Min_cycle;Max_cycle;Signal;HPM_P1;HPM_P2
2023/06/10 00:02:16;;;;;;;1999.90;999.90;;;22.30;90.60;;;;;;6784305;87;20176;-83
2023/06/10 00:12:17;;;;;;;1999.90;999.90;;;22.30;90.60;;;;;;6784464;87;20231;-83
2023/06/10 00:22:18;;;;;;;1999.90;999.90;;;22.30;90.80;;;;;;6784173;87;20562;-82
2023/06/10 00:32:18;;;;;;;1999.90;999.90;;;22.30;90.90;;;;;;6784000;87;20185;-82
2023/06/10 00:42:19;;;;;;;1999.90;999.90;;;22.10;91.70;;;;;;6783818;87;20197;-82
2023/06/10 00:52:25;;;;;;;1999.90;999.90;;;22.00;92.50;;;;;;6783047;87;20188;-83
2023/06/10 01:02:26;;;;;;;1999.90;999.90;;;21.90;92.20;;;;;;6782759;87;20272;-83
2023/06/10 01:12:48;;;;;;;1999.90;999.90;;;22.10;92.00;;;;;;6783893;87;20201;-83
2023/06/10 01:22:50;;;;;;;1999.90;999.90;;;21.70;92.50;;;;;;6782927;87;20147;-81
2023/06/10 01:32:52;;;;;;;1999.90;999.90;;;21.80;92.60;;;;;;6783488;87;20153;-83
2023/06/10 01:42:52;;;;;;;1999.90;999.90;;;21.50;94.30;;;;;;6783116;87;20178;-84
2023/06/10 01:52:53;;;;;;;1999.90;999.90;;;21.20;96.00;;;;;;6782518;87;20320;-82
2023/06/10 02:02:53;;;;;;;1999.90;999.90;;;20.80;97.90;;;;;;6781023;87;20279;-82
2023/06/10 02:22:59;;;;;;;1999.90;999.90;;;20.10;99.90;;;;;;6728653;88;20201;-80
2023/06/10 02:33:01;;;;;;;1999.90;999.90;;;19.80;99.90;;;;;;6731975;88;20229;-78
2023/06/10 02:43:01;;;;;;;1999.90;999.90;;;19.70;99.90;;;;;;6738399;88;20189;-77
2023/06/10 02:53:02;;;;;;;1999.90;999.90;;;19.60;99.90;;;;;;6732558;88;20186;-78
2023/06/10 03:03:03;;;;;;;1999.90;999.90;;;19.60;99.90;;;;;;6733640;88;20181;-78
2023/06/10 03:13:04;;;;;;;1999.90;999.90;;;19.30;99.90;;;;;;6737807;88;20197;-77
2023/06/10 03:23:08;;;;;;;1999.90;999.90;;;19.00;99.90;;;;;;6737348;88;20197;-77
2023/06/10 03:33:08;;;;;;;1999.90;999.90;;;19.00;99.90;;;;;;6734940;88;20266;-80
2023/06/10 03:43:09;;;;;;;1999.90;999.90;;;18.80;99.90;;;;;;6738622;88;20677;-79
2023/06/10 03:53:09;;;;;;;1999.90;999.90;;;18.70;99.90;;;;;;6746578;87;20150;-77
2023/06/10 04:03:14;;;;;;;1999.90;999.90;;;18.70;99.90;;;;;;6740582;88;20348;-77
2023/06/10 04:13:14;;;;;;;1999.90;999.90;;;18.70;99.90;;;;;;6701944;88;20747;-78
2023/06/10 04:23:15;;;;;;;1999.90;999.90;;;18.60;99.90;;;;;;6737434;88;20193;-78
2023/06/10 04:33:16;;;;;;;1999.90;999.90;;;18.50;99.90;;;;;;6733441;88;20205;-80
2023/06/10 04:43:17;;;;;;;1999.90;999.90;;;18.50;99.90;;;;;;6733861;88;20189;-80
2023/06/10 04:53:18;;;;;;;1999.90;999.90;;;18.50;99.90;;;;;;6749696;88;20204;-79
2023/06/10 05:03:18;;;;;;;1999.90;999.90;;;18.50;99.90;;;;;;6751588;88;20197;-79
2023/06/10 05:13:19;;;;;;;1999.90;999.90;;;18.90;99.90;;;;;;6751055;88;20280;-79
2023/06/10 05:23:20;;;;;;;1999.90;999.90;;;18.80;99.90;;;;;;6737709;88;20173;-80
2023/06/10 05:33:20;;;;;;;1999.90;999.90;;;19.10;99.90;;;;;;6743390;88;20271;-80
2023/06/10 05:43:21;;;;;;;1999.90;999.90;;;19.30;99.90;;;;;;6742419;88;20661;-78
2023/06/10 05:53:22;;;;;;;1999.90;999.90;;;19.50;99.90;;;;;;6736865;88;20177;-77
2023/06/10 06:03:22;;;;;;;1999.90;999.90;;;19.80;99.90;;;;;;6742924;88;20259;-79
2023/06/10 06:13:23;;;;;;;1999.90;999.90;;;20.50;99.90;;;;;;6745103;88;20281;-79
2023/06/10 06:23:23;;;;;;;1999.90;999.90;;;21.70;99.90;;;;;;6746738;88;20230;-79
2023/06/10 06:33:26;;;;;;;1999.90;999.90;;;22.50;99.90;;;;;;6742528;88;21073;-79
2023/06/10 06:43:26;;;;;;;1999.90;999.90;;;23.10;99.90;;;;;;6756197;88;20197;-77
2023/06/10 06:53:27;;;;;;;1999.90;999.90;;;23.80;99.90;;;;;;6757056;88;20208;-81
2023/06/10 07:03:27;;;;;;;1999.90;999.90;;;24.50;99.90;;;;;;6744280;88;20828;-81
2023/06/10 07:13:28;;;;;;;1999.90;999.90;;;25.40;98.20;;;;;;6748050;88;20228;-80
2023/06/10 07:23:28;;;;;;;1999.90;999.90;;;25.80;95.50;;;;;;6740042;88;20221;-80
2023/06/10 07:33:29;;;;;;;1999.90;999.90;;;26.50;95.30;;;;;;6737302;88;20289;-80
2023/06/10 07:43:29;;;;;;;1999.90;999.90;;;26.90;93.70;;;;;;6738939;88;20202;-79
2023/06/10 07:53:30;;;;;;;1999.90;999.90;;;27.50;93.10;;;;;;6734839;88;20295;-80
2023/06/10 08:03:30;;;;;;;1999.90;999.90;;;28.30;92.20;;;;;;6740592;88;20174;-80
2023/06/10 08:13:31;;;;;;;1999.90;999.90;;;28.50;91.60;;;;;;6740705;88;20779;-79
2023/06/10 08:23:31;;;;;;;1999.90;999.90;;;29.20;90.90;;;;;;6736050;88;20200;-78
2023/06/10 08:33:32;;;;;;;1999.90;999.90;;;28.70;90.30;;;;;;6736473;88;20300;-79
2023/06/10 08:43:45;;;;;;;1999.90;999.90;;;29.60;90.60;;;;;;6736328;88;20195;-79
2023/06/10 08:53:59;;;;;;;1999.90;999.90;;;29.70;90.20;;;;;;6737579;88;20195;-79
2023/06/10 09:04:00;;;;;;;1999.90;999.90;;;30.60;89.20;;;;;;6738404;88;20184;-80
2023/06/10 09:14:01;;;;;;;1999.90;999.90;;;31.30;88.40;;;;;;6739304;88;20522;-78
2023/06/10 09:24:02;;;;;;;1999.90;999.90;;;31.80;83.10;;;;;;6737418;88;20196;-80
2023/06/10 09:34:13;;;;;;;1999.90;999.90;;;31.80;84.40;;;;;;6739382;88;20263;-78
2023/06/10 09:44:15;;;;;;;1999.90;999.90;;;31.60;83.70;;;;;;6741493;88;20207;-79
2023/06/10 09:54:16;;;;;;;1999.90;999.90;;;32.90;82.70;;;;;;6745875;88;20190;-79
2023/06/10 10:04:22;;;;;;;;;;;32.90;80.20;;;;;;6743675;88;20326;-81
2023/06/10 10:14:25;;;;;;;1999.90;999.90;;;32.30;78.80;;;;;;6740545;88;20222;-77
2023/06/10 10:24:34;;;;;;;1999.90;999.90;;;32.50;79.80;;;;;;6755102;88;20676;-81
2023/06/10 10:34:45;;;;;;;1999.90;999.90;;;34.70;76.70;;;;;;6748677;88;20188;-80
2023/06/10 10:44:48;;;;;;;1999.90;999.90;;;34.90;75.00;;;;;;6737642;88;20207;-79
2023/06/10 10:54:52;;;;;;;1999.90;999.90;;;35.60;73.70;;;;;;6734033;88;20180;-81
2023/06/10 11:04:55;;;;;;;1999.90;999.90;;;37.10;70.90;;;;;;6746710;88;20197;-80
2023/06/10 11:14:56;;;;;;;1999.90;999.90;;;35.00;70.10;;;;;;6740195;88;20200;-80
2023/06/10 11:24:59;;;;;;;1999.90;999.90;;;33.00;73.40;;;;;;6732440;88;20186;-80
2023/06/10 11:35:02;;;;;;;1999.90;999.90;;;33.50;74.60;;;;;;6749045;88;20279;-84
2023/06/10 11:56:45;;;;;;;1999.90;999.90;;;32.50;74.60;;;;;;6770726;87;20747;-82
2023/06/10 12:06:51;;;;;;;1999.90;999.90;;;33.20;66.80;;;;;;6753688;88;20280;-81
2023/06/10 12:25:03;;;;;;;1999.90;999.90;;;33.00;64.00;;;;;;6816195;86;20194;-82
2023/06/10 12:35:05;;;;;;;1999.90;999.90;;;33.10;63.80;;;;;;6796135;87;20222;-85
2023/06/10 12:45:08;;;;;;;1999.90;999.90;;;33.50;62.80;;;;;;6803931;87;20266;-80
2023/06/10 12:55:09;;;;;;;1999.90;999.90;;;34.90;61.80;;;;;;6798790;87;20197;-81
2023/06/10 13:05:10;;;;;;;1999.90;999.90;;;35.10;61.20;;;;;;6797007;87;20191;-82
2023/06/10 13:15:10;;;;;;;1999.90;999.90;;;34.10;62.50;;;;;;6794658;87;20187;-81
2023/06/10 13:25:11;;;;;;;1999.90;999.90;;;34.00;63.30;;;;;;6768790;87;20165;-80
2023/06/10 13:35:11;;;;;;;1999.90;999.90;;;32.20;63.30;;;;;;6750271;88;20197;-80
2023/06/10 13:45:12;;;;;;;1999.90;999.90;;;33.60;63.70;;;;;;6749063;88;20174;-81
2023/06/10 13:55:14;;;;;;;1999.90;999.90;;;34.70;63.00;;;;;;6779245;87;20169;-80
2023/06/10 14:05:15;;;;;;;1999.90;999.90;;;34.80;63.10;;;;;;6784378;87;20160;-83
2023/06/10 14:15:15;;;;;;;1999.90;999.90;;;33.90;61.30;;;;;;6779635;87;20232;-81
2023/06/10 14:36:18;;;;;;;1999.90;999.90;;;34.50;61.00;;;;;;6739345;88;20200;-80
2023/06/10 14:46:22;;;;;;;1999.90;999.90;;;34.20;60.80;;;;;;6738697;88;20265;-83
2023/06/10 14:56:22;;;;;;;1999.90;999.90;;;34.60;61.10;;;;;;6738625;88;20202;-79
2023/06/10 15:06:23;;;;;;;1999.90;999.90;;;34.30;59.30;;;;;;6735957;88;20568;-79
2023/06/10 15:16:23;;;;;;;1999.90;999.90;;;34.20;59.20;;;;;;6737882;88;20214;-81
2023/06/10 15:26:24;;;;;;;1999.90;999.90;;;33.70;59.40;;;;;;6736061;88;20201;-82
2023/06/10 15:36:25;;;;;;;1999.90;999.90;;;34.20;58.50;;;;;;6731651;88;20233;-80
2023/06/10 15:46:27;;;;;;;1999.90;999.90;;;33.00;59.70;;;;;;6731771;88;20319;-82
2023/06/10 15:56:28;;;;;;;1999.90;999.90;;;33.40;58.80;;;;;;6735237;88;20173;-80
2023/06/10 16:06:29;;;;;;;1999.90;999.90;;;32.80;58.50;;;;;;6731563;88;20240;-83
2023/06/10 16:16:29;;;;;;;1999.90;999.90;;;33.40;59.40;;;;;;6735863;88;20567;-80
2023/06/10 16:26:30;;;;;;;1999.90;999.90;;;34.20;58.70;;;;;;6727211;88;20664;-83
2023/06/10 16:36:30;;;;;;;1999.90;999.90;;;32.80;58.40;;;;;;6723046;88;20506;-80
2023/06/10 16:46:31;;;;;;;1999.90;999.90;;;33.00;60.20;;;;;;6732870;88;20193;-81
2023/06/10 16:56:31;;;;;;;1999.90;999.90;;;33.10;58.90;;;;;;6728557;88;20277;-80
2023/06/10 17:06:32;;;;;;;1999.90;999.90;;;32.10;57.80;;;;;;6724742;88;20214;-81
2023/06/10 17:16:32;;;;;;;1999.90;999.90;;;32.20;58.40;;;;;;6687952;88;20188;-80
2023/06/10 17:26:33;;;;;;;1999.90;999.90;;;32.30;59.00;;;;;;6723974;88;20356;-81
2023/06/10 17:36:33;;;;;;;1999.90;999.90;;;32.90;59.40;;;;;;6737118;88;20239;-80
2023/06/10 17:46:34;;;;;;;1999.90;999.90;;;32.30;59.10;;;;;;6730569;88;20212;-80
2023/06/10 17:56:35;;;;;;;1999.90;999.90;;;32.10;60.00;;;;;;6728878;88;20245;-80
2023/06/10 18:06:36;;;;;;;1999.90;999.90;;;31.70;59.50;;;;;;6721292;88;20232;-82
2023/06/10 18:16:37;;;;;;;1999.90;999.90;;;31.30;60.00;;;;;;6728937;88;20179;-80
2023/06/10 18:26:38;;;;;;;1999.90;999.90;;;31.00;61.00;;;;;;6727661;88;20204;-80
2023/06/10 18:36:38;;;;;;;1999.90;999.90;;;30.70;61.60;;;;;;6730903;88;20197;-80
2023/06/10 18:46:39;;;;;;;1999.90;999.90;;;30.30;62.00;;;;;;6735371;88;20304;-80
2023/06/10 18:56:40;;;;;;;1999.90;999.90;;;29.70;62.50;;;;;;6732483;88;20204;-79
2023/06/10 19:06:41;;;;;;;1999.90;999.90;;;29.40;63.90;;;;;;6729792;88;20190;-80
2023/06/10 19:16:42;;;;;;;1999.90;999.90;;;29.00;64.40;;;;;;6724217;88;20642;-82
2023/06/10 19:26:42;;;;;;;1999.90;999.90;;;28.70;65.50;;;;;;6723387;88;20210;-79
2023/06/10 19:36:43;;;;;;;1999.90;999.90;;;28.20;66.80;;;;;;6724165;88;20378;-78
2023/06/10 19:46:46;;;;;;;1999.90;999.90;;;27.90;68.50;;;;;;6715092;88;20639;-78
2023/06/10 19:56:47;;;;;;;1999.90;999.90;;;27.60;69.30;;;;;;6721498;88;20206;-77
2023/06/10 20:06:47;;;;;;;1999.90;999.90;;;27.10;69.90;;;;;;6705658;88;20282;-78
2023/06/10 20:16:48;;;;;;;1999.90;999.90;;;26.90;70.60;;;;;;6715100;88;20185;-79
2023/06/10 20:27:29;;;;;;;1999.90;999.90;;;26.70;71.90;;;;;;6744353;77;20255;-81
2023/06/10 20:37:30;;;;;;;1999.90;999.90;;;26.40;73.30;;;;;;6759439;88;20244;-81
2023/06/10 20:47:30;;;;;;;1999.90;999.90;;;26.20;74.20;;;;;;6758245;88;20204;-80
2023/06/10 20:57:31;;;;;;;1999.90;999.90;;;26.10;75.70;;;;;;6756489;88;20250;-80
2023/06/10 21:07:31;;;;;;;1999.90;999.90;;;25.80;76.70;;;;;;6753138;88;20191;-79
2023/06/10 21:17:32;;;;;;;1999.90;999.90;;;25.70;78.10;;;;;;6760527;88;20242;-80
2023/06/10 21:27:32;;;;;;;1999.90;999.90;;;25.60;78.50;;;;;;6759312;87;20213;-80
2023/06/10 21:37:33;;;;;;;1999.90;999.90;;;25.30;79.50;;;;;;6758266;88;20312;-78
2023/06/10 21:47:33;;;;;;;1999.90;999.90;;;25.10;80.20;;;;;;6755602;88;20364;-78
2023/06/10 21:57:34;;;;;;;1999.90;999.90;;;24.90;81.00;;;;;;6755645;88;20257;-80
2023/06/10 22:07:35;;;;;;;1999.90;999.90;;;24.60;82.00;;;;;;6757480;88;20346;-80
2023/06/10 22:17:35;;;;;;;1999.90;999.90;;;24.70;82.10;;;;;;6756097;88;20288;-79
2023/06/10 22:27:36;;;;;;;1999.90;999.90;;;24.70;82.70;;;;;;6755840;87;20188;-78
2023/06/10 22:37:36;;;;;;;1999.90;999.90;;;24.50;83.80;;;;;;6751821;88;20314;-77
2023/06/10 22:47:37;;;;;;;1999.90;999.90;;;24.50;84.20;;;;;;6744478;88;20193;-77
2023/06/10 22:57:37;;;;;;;1999.90;999.90;;;24.20;85.70;;;;;;6740203;87;20197;-77
2023/06/10 23:07:38;;;;;;;1999.90;999.90;;;24.00;87.30;;;;;;6740066;88;20276;-78
2023/06/10 23:17:39;;;;;;;1999.90;999.90;;;23.80;88.20;;;;;;6744356;88;20680;-77
2023/06/10 23:27:40;;;;;;;1999.90;999.90;;;23.60;89.90;;;;;;6755652;87;20247;-77
2023/06/10 23:37:40;;;;;;;1999.90;999.90;;;23.40;91.10;;;;;;6755181;88;20688;-80
2023/06/10 23:47:41;;;;;;;1999.90;999.90;;;23.50;90.50;;;;;;6741026;88;20207;-79
2023/06/10 23:57:41;;;;;;;1999.90;999.90;;;23.20;91.90;;;;;;6740070;88;20741;-79
